Queen Of Nanaimo — VCNX — position and weather

sailwx.info

Track history (hours):
 
Tides and Currents Weather Stations Pressure Air Temp Water Temp Dewpoint Dewpoint Depression Visibility Wind Speed Wind Dir Waves Ship Positions

Queen Of Nanaimo

Last reported at 2016-Jun-28 04:32 UTC. Time now 2016-Jun-28 06:07 UTC.
Position N 48°48' W 123°20'.

Length 130 m; draft 4 m.

Type: Passenger vessel. MMSI: 316001254.

Date/timePositionNaut miles runAvg speedWind from/ knotsBaromVisibWave heightAir tempDewpointWater temp
2016-Jun-28 04:32N 48°48' W 123°20'5 4.9
2016-Jun-28 03:34N 48°53' W 123°19'1010.4
2016-Jun-28 02:33N 49°00' W 123°08'0 0.3
2016-Jun-28 01:33N 49°00' W 123°08'1110.5
2016-Jun-28 00:33N 48°53' W 123°19'3 2.6
2016-Jun-27 23:31N 48°50' W 123°20'2 0.5
2016-Jun-27 19:19N 48°48' W 123°20'5 6.2
2016-Jun-27 18:33N 48°52' W 123°18'10 9.6
2016-Jun-27 17:34N 48°60' W 123°09'1 1.0
2016-Jun-27 16:33N 49°00' W 123°08'1110.5
2016-Jun-27 15:33N 48°53' W 123°18'2 2.3
2016-Jun-27 14:29N 48°50' W 123°20'3 3.1
2016-Jun-27 13:30N 48°50' W 123°25'4 0.6
2016-Jun-27 06:33N 48°52' W 123°19'1211.6
2016-Jun-27 05:33N 49°00' W 123°08'6 6.3
2016-Jun-27 04:33N 48°55' W 123°14'1 0.5
2016-Jun-27 02:33N 48°56' W 123°14'6 6.0
2016-Jun-27 01:33N 49°00' W 123°08'11 7.9
2016-Jun-27 00:12N 48°53' W 123°19'5 1.3
2016-Jun-26 20:32N 48°48' W 123°20'4 3.8
2016-Jun-26 19:32N 48°52' W 123°19'9 9.1
2016-Jun-26 18:34N 48°59' W 123°11'3 2.9
2016-Jun-26 17:32N 49°00' W 123°08'1110.9
2016-Jun-26 16:33N 48°53' W 123°19'3 2.7
2016-Jun-26 15:29N 48°50' W 123°21'3 2.9
2016-Jun-26 14:33N 48°50' W 123°25'4 0.4
2016-Jun-26 05:25N 48°52' W 123°20'8 9.6
2016-Jun-26 04:33N 48°58' W 123°12'4 3.6
2016-Jun-26 03:34N 49°00' W 123°08'0 0.0
2016-Jun-26 02:33N 49°00' W 123°08'1 1.1
2016-Jun-26 01:33N 48°59' W 123°08'10 9.6
2016-Jun-26 00:33N 48°53' W 123°19'5 3.4
2016-Jun-25 23:10N 48°48' W 123°20'4 1.5
2016-Jun-25 20:25N 48°50' W 123°25'1213.9
2016-Jun-25 19:33N 48°58' W 123°11'1 0.6
2016-Jun-25 18:33N 48°57' W 123°11'7 3.4
2016-Jun-25 16:28N 48°53' W 123°19'1110.9
2016-Jun-25 15:29N 49°00' W 123°08'4 4.8
2016-Jun-25 14:33N 48°57' W 123°12'10 1.0
2016-Jun-25 04:27N 48°48' W 123°20'5 5.8
2016-Jun-25 03:33N 48°53' W 123°18'1010.1
2016-Jun-25 02:34N 49°00' W 123°08'9 8.6
2016-Jun-25 01:34N 48°54' W 123°16'3 3.3
2016-Jun-25 00:33N 48°52' W 123°20'8 7.6
2016-Jun-24 23:33N 48°58' W 123°13'4 4.4
2016-Jun-24 22:34N 49°00' W 123°08'1111.4
2016-Jun-24 21:34N 48°51' W 123°19'4 3.0
2016-Jun-24 20:08N 48°50' W 123°25'4 6.8
2016-Jun-24 19:30N 48°48' W 123°19'5 5.1
2016-Jun-24 18:33N 48°53' W 123°18'9 8.9
2016-Jun-24 17:33N 48°59' W 123°09'2 1.5
2016-Jun-24 16:33N 49°00' W 123°08'1010.1
2016-Jun-24 15:33N 48°53' W 123°18'2 2.3
2016-Jun-24 14:31N 48°51' W 123°20'4 3.4
2016-Jun-24 13:26N 48°50' W 123°25'3 0.3
2016-Jun-24 04:19N 48°51' W 123°21'3 4.3
2016-Jun-24 03:33N 48°54' W 123°17'9 9.3
2016-Jun-24 02:34N 49°00' W 123°08'0 0.0
2016-Jun-24 01:34N 49°00' W 123°08'1110.5
2016-Jun-24 00:33N 48°53' W 123°19'3 2.7
2016-Jun-23 23:32N 48°50' W 123°20'3 0.8
2016-Jun-23 20:09N 48°50' W 123°25'4 5.3
2016-Jun-23 19:28N 48°48' W 123°20'5 5.1
2016-Jun-23 18:32N 48°53' W 123°19'9 9.7
2016-Jun-23 17:33N 48°59' W 123°09'1 1.3
2016-Jun-23 16:33N 49°00' W 123°08'1110.7
2016-Jun-23 15:34N 48°53' W 123°19'2 1.9
2016-Jun-23 14:31N 48°51' W 123°20'3 0.4
2016-Jun-23 05:17N 48°50' W 123°25'4 5.2
2016-Jun-23 04:29N 48°48' W 123°20'5 5.2
2016-Jun-23 03:34N 48°53' W 123°19'9 9.1
2016-Jun-23 02:33N 48°59' W 123°09'1 1.4
2016-Jun-23 01:33N 49°00' W 123°08'1110.5
2016-Jun-23 00:32N 48°53' W 123°19'2 1.8
2016-Jun-22 23:29N 48°51' W 123°20'4 1.1
2016-Jun-22 20:12N 48°50' W 123°25'4 6.0
2016-Jun-22 19:29N 48°48' W 123°20'5 5.2
2016-Jun-22 18:34N 48°53' W 123°19'9 9.2
2016-Jun-22 17:33N 48°59' W 123°09'1 1.4
2016-Jun-22 16:33N 49°00' W 123°08'1010.5
2016-Jun-22 15:34N 48°53' W 123°18'2 2.1
2016-Jun-22 14:29N 48°51' W 123°20'3 3.2
2016-Jun-22 13:29N 48°50' W 123°25'2 1.2
2016-Jun-22 12:05N 48°51' W 123°27'5 0.7
2016-Jun-22 04:33N 48°48' W 123°20'4 4.2
2016-Jun-22 03:34N 48°53' W 123°19'1110.5
2016-Jun-22 02:33N 49°00' W 123°08'0 0.1
2016-Jun-22 01:33N 49°00' W 123°08'1110.6
2016-Jun-22 00:33N 48°53' W 123°19'2 2.0
2016-Jun-21 23:26N 48°51' W 123°20'3 1.0
2016-Jun-21 20:10N 48°50' W 123°25'4 6.0
2016-Jun-21 19:26N 48°48' W 123°20'5 5.5
2016-Jun-21 18:33N 48°53' W 123°18'9 9.1
2016-Jun-21 17:33N 48°59' W 123°09'1 1.3
2016-Jun-21 16:34N 49°00' W 123°08'1110.6
2016-Jun-21 15:34N 48°53' W 123°19'2 2.1
2016-Jun-21 14:30N 48°50' W 123°20'3 3.1
2016-Jun-21 13:32N 48°50' W 123°25'4 0.4
2016-Jun-21 04:23N 48°48' W 123°20'4 5.4
2016-Jun-21 03:34N 48°52' W 123°18'8 8.4
2016-Jun-21 02:33N 48°59' W 123°10'2 2.4
2016-Jun-21 01:34N 49°00' W 123°08'1110.6
2016-Jun-21 00:33N 48°53' W 123°19'3 3.1
2016-Jun-20 23:31N 48°49' W 123°20'2 0.4
2016-Jun-20 19:18N 48°48' W 123°20'5 6.3
2016-Jun-20 18:34N 48°52' W 123°18'9 9.3
2016-Jun-20 17:33N 48°59' W 123°09'1 1.3
2016-Jun-20 16:34N 49°00' W 123°08'1110.5
2016-Jun-20 15:33N 48°53' W 123°18'3 2.3
2016-Jun-20 14:26N 48°50' W 123°20'3 3.1
2016-Jun-20 13:31N 48°50' W 123°24'5 0.6
2016-Jun-20 05:34N 48°52' W 123°18'1110.6
2016-Jun-20 04:33N 49°00' W 123°08'1111.3
2016-Jun-20 03:33N 48°52' W 123°19'1 1.2
2016-Jun-20 02:32N 48°52' W 123°21'1212.4
2016-Jun-20 01:33N 49°00' W 123°08'6 5.6
2016-Jun-20 00:33N 48°56' W 123°13'7 6.8
2016-Jun-19 23:33N 48°52' W 123°21'4 1.1
2016-Jun-19 20:13N 48°48' W 123°20'4 5.3
2016-Jun-19 19:29N 48°52' W 123°20'7 8.0
2016-Jun-19 18:34N 48°57' W 123°13'5 4.6
2016-Jun-19 17:33N 49°00' W 123°08'1010.3
2016-Jun-19 16:33N 48°53' W 123°18'2 1.9
2016-Jun-19 15:22N 48°51' W 123°20'2 0.2
2016-Jun-19 04:33N 48°53' W 123°18'1010.3
2016-Jun-19 03:34N 49°00' W 123°08'0 0.0
2016-Jun-19 02:34N 49°00' W 123°08'0 0.0
2016-Jun-19 01:33N 49°00' W 123°08'1110.7
2016-Jun-19 00:33N 48°53' W 123°19'5 3.4
2016-Jun-18 23:08N 48°48' W 123°21'4 1.4
2016-Jun-18 20:24N 48°52' W 123°20'1012.4
2016-Jun-18 19:34N 48°59' W 123°10'2 1.9
2016-Jun-18 18:34N 48°57' W 123°11'9 6.3
2016-Jun-18 17:08N 48°51' W 123°20'2 3.5
2016-Jun-18 16:34N 48°53' W 123°19'1110.6
2016-Jun-18 15:33N 49°00' W 123°08'6 6.3
2016-Jun-18 14:33N 48°55' W 123°14'10 1.1
2016-Jun-18 05:27N 48°51' W 123°27'  
Track history (hours):
 
Tides and Currents Weather Stations Pressure Air Temp Water Temp Dewpoint Dewpoint Depression Visibility Wind Speed Wind Dir Waves Ship Positions

Queen Of Nanaimo

Last reported at 2016-Jun-28 04:32 UTC. Time now 2016-Jun-28 06:07 UTC.
Position N 48°48' W 123°20'.

Length 130 m; draft 4 m.

Type: Passenger vessel. MMSI: 316001254.

Date/timePositionNaut miles runAvg speedWind from/ knotsBaromVisibWave heightAir tempDewpointWater temp
2016-Jun-28 04:32N 48°48' W 123°20'5 4.9
2016-Jun-28 03:34N 48°53' W 123°19'1010.4
2016-Jun-28 02:33N 49°00' W 123°08'0 0.3
2016-Jun-28 01:33N 49°00' W 123°08'1110.5
2016-Jun-28 00:33N 48°53' W 123°19'3 2.6
2016-Jun-27 23:31N 48°50' W 123°20'2 0.5
2016-Jun-27 19:19N 48°48' W 123°20'5 6.2
2016-Jun-27 18:33N 48°52' W 123°18'10 9.6
2016-Jun-27 17:34N 48°60' W 123°09'1 1.0
2016-Jun-27 16:33N 49°00' W 123°08'1110.5
2016-Jun-27 15:33N 48°53' W 123°18'2 2.3
2016-Jun-27 14:29N 48°50' W 123°20'3 3.1
2016-Jun-27 13:30N 48°50' W 123°25'4 0.6
2016-Jun-27 06:33N 48°52' W 123°19'1211.6
2016-Jun-27 05:33N 49°00' W 123°08'6 6.3
2016-Jun-27 04:33N 48°55' W 123°14'1 0.5
2016-Jun-27 02:33N 48°56' W 123°14'6 6.0
2016-Jun-27 01:33N 49°00' W 123°08'11 7.9
2016-Jun-27 00:12N 48°53' W 123°19'5 1.3
2016-Jun-26 20:32N 48°48' W 123°20'4 3.8
2016-Jun-26 19:32N 48°52' W 123°19'9 9.1
2016-Jun-26 18:34N 48°59' W 123°11'3 2.9
2016-Jun-26 17:32N 49°00' W 123°08'1110.9
2016-Jun-26 16:33N 48°53' W 123°19'3 2.7
2016-Jun-26 15:29N 48°50' W 123°21'3 2.9
2016-Jun-26 14:33N 48°50' W 123°25'4 0.4
2016-Jun-26 05:25N 48°52' W 123°20'8 9.6
2016-Jun-26 04:33N 48°58' W 123°12'4 3.6
2016-Jun-26 03:34N 49°00' W 123°08'0 0.0
2016-Jun-26 02:33N 49°00' W 123°08'1 1.1
2016-Jun-26 01:33N 48°59' W 123°08'10 9.6
2016-Jun-26 00:33N 48°53' W 123°19'5 3.4
2016-Jun-25 23:10N 48°48' W 123°20'4 1.5
2016-Jun-25 20:25N 48°50' W 123°25'1213.9
2016-Jun-25 19:33N 48°58' W 123°11'1 0.6
2016-Jun-25 18:33N 48°57' W 123°11'7 3.4
2016-Jun-25 16:28N 48°53' W 123°19'1110.9
2016-Jun-25 15:29N 49°00' W 123°08'4 4.8
2016-Jun-25 14:33N 48°57' W 123°12'10 1.0
2016-Jun-25 04:27N 48°48' W 123°20'5 5.8
2016-Jun-25 03:33N 48°53' W 123°18'1010.1
2016-Jun-25 02:34N 49°00' W 123°08'9 8.6
2016-Jun-25 01:34N 48°54' W 123°16'3 3.3
2016-Jun-25 00:33N 48°52' W 123°20'8 7.6
2016-Jun-24 23:33N 48°58' W 123°13'4 4.4
2016-Jun-24 22:34N 49°00' W 123°08'1111.4
2016-Jun-24 21:34N 48°51' W 123°19'4 3.0
2016-Jun-24 20:08N 48°50' W 123°25'4 6.8
2016-Jun-24 19:30N 48°48' W 123°19'5 5.1
2016-Jun-24 18:33N 48°53' W 123°18'9 8.9
2016-Jun-24 17:33N 48°59' W 123°09'2 1.5
2016-Jun-24 16:33N 49°00' W 123°08'1010.1
2016-Jun-24 15:33N 48°53' W 123°18'2 2.3
2016-Jun-24 14:31N 48°51' W 123°20'4 3.4
2016-Jun-24 13:26N 48°50' W 123°25'3 0.3
2016-Jun-24 04:19N 48°51' W 123°21'3 4.3
2016-Jun-24 03:33N 48°54' W 123°17'9 9.3
2016-Jun-24 02:34N 49°00' W 123°08'0 0.0
2016-Jun-24 01:34N 49°00' W 123°08'1110.5
2016-Jun-24 00:33N 48°53' W 123°19'3 2.7
2016-Jun-23 23:32N 48°50' W 123°20'3 0.8
2016-Jun-23 20:09N 48°50' W 123°25'4 5.3
2016-Jun-23 19:28N 48°48' W 123°20'5 5.1
2016-Jun-23 18:32N 48°53' W 123°19'9 9.7
2016-Jun-23 17:33N 48°59' W 123°09'1 1.3
2016-Jun-23 16:33N 49°00' W 123°08'1110.7
2016-Jun-23 15:34N 48°53' W 123°19'2 1.9
2016-Jun-23 14:31N 48°51' W 123°20'3 0.4
2016-Jun-23 05:17N 48°50' W 123°25'4 5.2
2016-Jun-23 04:29N 48°48' W 123°20'5 5.2
2016-Jun-23 03:34N 48°53' W 123°19'9 9.1
2016-Jun-23 02:33N 48°59' W 123°09'1 1.4
2016-Jun-23 01:33N 49°00' W 123°08'1110.5
2016-Jun-23 00:32N 48°53' W 123°19'2 1.8
2016-Jun-22 23:29N 48°51' W 123°20'4 1.1
2016-Jun-22 20:12N 48°50' W 123°25'4 6.0
2016-Jun-22 19:29N 48°48' W 123°20'5 5.2
2016-Jun-22 18:34N 48°53' W 123°19'9 9.2
2016-Jun-22 17:33N 48°59' W 123°09'1 1.4
2016-Jun-22 16:33N 49°00' W 123°08'1010.5
2016-Jun-22 15:34N 48°53' W 123°18'2 2.1
2016-Jun-22 14:29N 48°51' W 123°20'3 3.2
2016-Jun-22 13:29N 48°50' W 123°25'2 1.2
2016-Jun-22 12:05N 48°51' W 123°27'5 0.7
2016-Jun-22 04:33N 48°48' W 123°20'4 4.2
2016-Jun-22 03:34N 48°53' W 123°19'1110.5
2016-Jun-22 02:33N 49°00' W 123°08'0 0.1
2016-Jun-22 01:33N 49°00' W 123°08'1110.6
2016-Jun-22 00:33N 48°53' W 123°19'2 2.0
2016-Jun-21 23:26N 48°51' W 123°20'3 1.0
2016-Jun-21 20:10N 48°50' W 123°25'4 6.0
2016-Jun-21 19:26N 48°48' W 123°20'5 5.5
2016-Jun-21 18:33N 48°53' W 123°18'9 9.1
2016-Jun-21 17:33N 48°59' W 123°09'1 1.3
2016-Jun-21 16:34N 49°00' W 123°08'1110.6
2016-Jun-21 15:34N 48°53' W 123°19'2 2.1
2016-Jun-21 14:30N 48°50' W 123°20'3 3.1
2016-Jun-21 13:32N 48°50' W 123°25'4 0.4
2016-Jun-21 04:23N 48°48' W 123°20'4 5.4
2016-Jun-21 03:34N 48°52' W 123°18'8 8.4
2016-Jun-21 02:33N 48°59' W 123°10'2 2.4
2016-Jun-21 01:34N 49°00' W 123°08'1110.6
2016-Jun-21 00:33N 48°53' W 123°19'3 3.1
2016-Jun-20 23:31N 48°49' W 123°20'2 0.4
2016-Jun-20 19:18N 48°48' W 123°20'5 6.3
2016-Jun-20 18:34N 48°52' W 123°18'9 9.3
2016-Jun-20 17:33N 48°59' W 123°09'1 1.3
2016-Jun-20 16:34N 49°00' W 123°08'1110.5
2016-Jun-20 15:33N 48°53' W 123°18'3 2.3
2016-Jun-20 14:26N 48°50' W 123°20'3 3.1
2016-Jun-20 13:31N 48°50' W 123°24'5 0.6
2016-Jun-20 05:34N 48°52' W 123°18'1110.6
2016-Jun-20 04:33N 49°00' W 123°08'1111.3
2016-Jun-20 03:33N 48°52' W 123°19'1 1.2
2016-Jun-20 02:32N 48°52' W 123°21'1212.4
2016-Jun-20 01:33N 49°00' W 123°08'6 5.6
2016-Jun-20 00:33N 48°56' W 123°13'7 6.8
2016-Jun-19 23:33N 48°52' W 123°21'4 1.1
2016-Jun-19 20:13N 48°48' W 123°20'4 5.3
2016-Jun-19 19:29N 48°52' W 123°20'7 8.0
2016-Jun-19 18:34N 48°57' W 123°13'5 4.6
2016-Jun-19 17:33N 49°00' W 123°08'1010.3
2016-Jun-19 16:33N 48°53' W 123°18'2 1.9
2016-Jun-19 15:22N 48°51' W 123°20'2 0.2
2016-Jun-19 04:33N 48°53' W 123°18'1010.3
2016-Jun-19 03:34N 49°00' W 123°08'0 0.0
2016-Jun-19 02:34N 49°00' W 123°08'0 0.0
2016-Jun-19 01:33N 49°00' W 123°08'1110.7
2016-Jun-19 00:33N 48°53' W 123°19'5 3.4
2016-Jun-18 23:08N 48°48' W 123°21'4 1.4
2016-Jun-18 20:24N 48°52' W 123°20'1012.4
2016-Jun-18 19:34N 48°59' W 123°10'2 1.9
2016-Jun-18 18:34N 48°57' W 123°11'9 6.3
2016-Jun-18 17:08N 48°51' W 123°20'2 3.5
2016-Jun-18 16:34N 48°53' W 123°19'1110.6
2016-Jun-18 15:33N 49°00' W 123°08'6 6.3
2016-Jun-18 14:33N 48°55' W 123°14'10 1.1
2016-Jun-18 05:27N 48°51' W 123°27'  

Dump ship's entire track history